sensor_id;sensor_type;location;lat;lon;timestamp;P1;durP1;ratioP1;P2;durP2;ratioP2
69305;SDS011;56427;51.580;4.656;2022-09-09T00:00:53;9.67;;;4.20;;
69305;SDS011;56427;51.580;4.656;2022-09-09T00:03:31;9.60;;;4.28;;
69305;SDS011;56427;51.580;4.656;2022-09-09T00:06:14;9.23;;;3.95;;
69305;SDS011;56427;51.580;4.656;2022-09-09T00:11:42;6.80;;;4.20;;
69305;SDS011;56427;51.580;4.656;2022-09-09T00:14:20;8.52;;;4.72;;
69305;SDS011;56427;51.580;4.656;2022-09-09T00:16:53;8.23;;;4.28;;
69305;SDS011;56427;51.580;4.656;2022-09-09T00:19:37;11.50;;;5.10;;
69305;SDS011;56427;51.580;4.656;2022-09-09T00:22:18;8.93;;;4.80;;
69305;SDS011;56427;51.580;4.656;2022-09-09T00:24:46;9.93;;;5.20;;
69305;SDS011;56427;51.580;4.656;2022-09-09T00:27:22;10.05;;;5.22;;
69305;SDS011;56427;51.580;4.656;2022-09-09T00:29:56;14.98;;;5.60;;
69305;SDS011;56427;51.580;4.656;2022-09-09T00:32:30;11.30;;;5.13;;
69305;SDS011;56427;51.580;4.656;2022-09-09T00:34:59;12.70;;;5.97;;
69305;SDS011;56427;51.580;4.656;2022-09-09T00:37:28;11.73;;;5.82;;
69305;SDS011;56427;51.580;4.656;2022-09-09T00:39:57;10.25;;;5.95;;
69305;SDS011;56427;51.580;4.656;2022-09-09T00:42:45;9.32;;;5.47;;
69305;SDS011;56427;51.580;4.656;2022-09-09T00:47:43;12.05;;;6.15;;
69305;SDS011;56427;51.580;4.656;2022-09-09T00:55:48;12.98;;;6.00;;
69305;SDS011;56427;51.580;4.656;2022-09-09T00:58:25;12.38;;;6.45;;
69305;SDS011;56427;51.580;4.656;2022-09-09T01:00:53;10.45;;;5.53;;
69305;SDS011;56427;51.580;4.656;2022-09-09T01:06:10;15.32;;;6.88;;
69305;SDS011;56427;51.580;4.656;2022-09-09T01:14:35;10.57;;;5.43;;
69305;SDS011;56427;51.580;4.656;2022-09-09T01:22:20;9.63;;;5.07;;
69305;SDS011;56427;51.580;4.656;2022-09-09T01:25:11;11.00;;;5.25;;
69305;SDS011;56427;51.580;4.656;2022-09-09T01:28:00;12.82;;;5.00;;
69305;SDS011;56427;51.580;4.656;2022-09-09T01:30:32;11.37;;;4.90;;
69305;SDS011;56427;51.580;4.656;2022-09-09T01:32:58;10.13;;;4.78;;
69305;SDS011;56427;51.580;4.656;2022-09-09T01:38:02;11.35;;;5.00;;
69305;SDS011;56427;51.580;4.656;2022-09-09T01:40:27;11.23;;;5.30;;
69305;SDS011;56427;51.580;4.656;2022-09-09T01:42:52;8.97;;;4.50;;
69305;SDS011;56427;51.580;4.656;2022-09-09T01:45:19;11.95;;;4.40;;
69305;SDS011;56427;51.580;4.656;2022-09-09T01:47:46;10.80;;;4.60;;
69305;SDS011;56427;51.580;4.656;2022-09-09T01:50:13;11.53;;;4.83;;
69305;SDS011;56427;51.580;4.656;2022-09-09T01:52:41;7.93;;;4.25;;
69305;SDS011;56427;51.580;4.656;2022-09-09T01:55:08;9.70;;;3.83;;
69305;SDS011;56427;51.580;4.656;2022-09-09T01:57:50;11.47;;;3.60;;
69305;SDS011;56427;51.580;4.656;2022-09-09T02:00:19;10.38;;;3.88;;
69305;SDS011;56427;51.580;4.656;2022-09-09T02:08:03;10.45;;;4.32;;
69305;SDS011;56427;51.580;4.656;2022-09-09T02:13:10;8.90;;;3.67;;
69305;SDS011;56427;51.580;4.656;2022-09-09T02:18:17;9.20;;;3.90;;
69305;SDS011;56427;51.580;4.656;2022-09-09T02:20:56;7.47;;;3.45;;
69305;SDS011;56427;51.580;4.656;2022-09-09T02:23:23;7.28;;;3.15;;
69305;SDS011;56427;51.580;4.656;2022-09-09T02:25:49;9.23;;;3.33;;
69305;SDS011;56427;51.580;4.656;2022-09-09T02:28:16;7.53;;;3.13;;
69305;SDS011;56427;51.580;4.656;2022-09-09T02:30:46;7.43;;;3.22;;
69305;SDS011;56427;51.580;4.656;2022-09-09T02:33:20;8.15;;;2.92;;
69305;SDS011;56427;51.580;4.656;2022-09-09T02:35:50;8.80;;;3.10;;
69305;SDS011;56427;51.580;4.656;2022-09-09T02:38:17;7.72;;;2.83;;
69305;SDS011;56427;51.580;4.656;2022-09-09T02:40:44;7.40;;;3.20;;
69305;SDS011;56427;51.580;4.656;2022-09-09T02:43:10;9.02;;;3.70;;
69305;SDS011;56427;51.580;4.656;2022-09-09T02:45:43;8.83;;;3.83;;
69305;SDS011;56427;51.580;4.656;2022-09-09T02:48:30;7.25;;;3.35;;
69305;SDS011;56427;51.580;4.656;2022-09-09T02:53:47;7.72;;;2.90;;
69305;SDS011;56427;51.580;4.656;2022-09-09T02:56:20;8.70;;;3.50;;
69305;SDS011;56427;51.580;4.656;2022-09-09T02:58:50;7.47;;;3.25;;
69305;SDS011;56427;51.580;4.656;2022-09-09T03:01:16;8.93;;;3.53;;
69305;SDS011;56427;51.580;4.656;2022-09-09T03:03:42;7.83;;;3.17;;
69305;SDS011;56427;51.580;4.656;2022-09-09T03:06:09;11.15;;;3.60;;
69305;SDS011;56427;51.580;4.656;2022-09-09T03:08:36;8.40;;;3.58;;
69305;SDS011;56427;51.580;4.656;2022-09-09T03:11:02;7.73;;;3.67;;
69305;SDS011;56427;51.580;4.656;2022-09-09T03:13:27;8.83;;;3.60;;
69305;SDS011;56427;51.580;4.656;2022-09-09T03:15:52;9.17;;;4.23;;
69305;SDS011;56427;51.580;4.656;2022-09-09T03:18:18;10.37;;;4.73;;
69305;SDS011;56427;51.580;4.656;2022-09-09T03:20:43;12.87;;;4.83;;
69305;SDS011;56427;51.580;4.656;2022-09-09T03:23:08;10.17;;;4.17;;
69305;SDS011;56427;51.580;4.656;2022-09-09T03:25:34;7.63;;;4.30;;
69305;SDS011;56427;51.580;4.656;2022-09-09T03:28:00;12.20;;;4.65;;
69305;SDS011;56427;51.580;4.656;2022-09-09T03:30:26;8.83;;;4.13;;
69305;SDS011;56427;51.580;4.656;2022-09-09T03:32:52;8.73;;;4.35;;
69305;SDS011;56427;51.580;4.656;2022-09-09T03:35:19;10.23;;;3.92;;
69305;SDS011;56427;51.580;4.656;2022-09-09T03:37:45;12.13;;;4.30;;
69305;SDS011;56427;51.580;4.656;2022-09-09T03:40:10;7.87;;;4.30;;
69305;SDS011;56427;51.580;4.656;2022-09-09T03:42:36;13.38;;;4.43;;
69305;SDS011;56427;51.580;4.656;2022-09-09T03:45:06;12.00;;;4.00;;
69305;SDS011;56427;51.580;4.656;2022-09-09T03:47:34;14.60;;;4.95;;
69305;SDS011;56427;51.580;4.656;2022-09-09T03:49:59;12.13;;;4.97;;
69305;SDS011;56427;51.580;4.656;2022-09-09T03:52:24;12.40;;;3.77;;
69305;SDS011;56427;51.580;4.656;2022-09-09T03:54:51;11.95;;;4.00;;
69305;SDS011;56427;51.580;4.656;2022-09-09T03:57:17;10.07;;;3.70;;
69305;SDS011;56427;51.580;4.656;2022-09-09T03:59:43;12.55;;;4.65;;
69305;SDS011;56427;51.580;4.656;2022-09-09T04:02:08;10.80;;;4.03;;
69305;SDS011;56427;51.580;4.656;2022-09-09T04:04:34;9.77;;;3.47;;
69305;SDS011;56427;51.580;4.656;2022-09-09T04:07:00;10.33;;;3.50;;
69305;SDS011;56427;51.580;4.656;2022-09-09T04:09:25;8.10;;;3.70;;
69305;SDS011;56427;51.580;4.656;2022-09-09T04:11:51;12.97;;;3.90;;
69305;SDS011;56427;51.580;4.656;2022-09-09T04:14:17;11.17;;;3.63;;
69305;SDS011;56427;51.580;4.656;2022-09-09T04:16:43;9.90;;;3.63;;
69305;SDS011;56427;51.580;4.656;2022-09-09T04:19:09;11.90;;;4.10;;
69305;SDS011;56427;51.580;4.656;2022-09-09T04:21:37;12.98;;;3.42;;
69305;SDS011;56427;51.580;4.656;2022-09-09T04:24:04;10.02;;;3.47;;
69305;SDS011;56427;51.580;4.656;2022-09-09T04:26:30;11.33;;;3.33;;
69305;SDS011;56427;51.580;4.656;2022-09-09T04:28:55;13.40;;;4.27;;
69305;SDS011;56427;51.580;4.656;2022-09-09T04:31:21;10.23;;;3.60;;
69305;SDS011;56427;51.580;4.656;2022-09-09T04:33:48;14.00;;;3.70;;
69305;SDS011;56427;51.580;4.656;2022-09-09T04:36:14;12.45;;;4.28;;
69305;SDS011;56427;51.580;4.656;2022-09-09T04:38:39;10.43;;;3.43;;
69305;SDS011;56427;51.580;4.656;2022-09-09T04:41:05;12.30;;;3.53;;
69305;SDS011;56427;51.580;4.656;2022-09-09T04:43:32;14.05;;;3.90;;
69305;SDS011;56427;51.580;4.656;2022-09-09T04:45:57;12.23;;;3.87;;
69305;SDS011;56427;51.580;4.656;2022-09-09T04:48:24;12.35;;;3.97;;
69305;SDS011;56427;51.580;4.656;2022-09-09T04:50:57;9.73;;;3.65;;
69305;SDS011;56427;51.580;4.656;2022-09-09T04:53:26;14.50;;;3.83;;
69305;SDS011;56427;51.580;4.656;2022-09-09T04:55:53;12.07;;;4.30;;
69305;SDS011;56427;51.580;4.656;2022-09-09T04:58:26;16.17;;;4.00;;
69305;SDS011;56427;51.580;4.656;2022-09-09T05:00:51;13.23;;;4.13;;
69305;SDS011;56427;51.580;4.656;2022-09-09T05:03:17;13.37;;;4.10;;
69305;SDS011;56427;51.580;4.656;2022-09-09T05:05:42;12.10;;;3.63;;
69305;SDS011;56427;51.580;4.656;2022-09-09T05:08:07;10.43;;;4.17;;
69305;SDS011;56427;51.580;4.656;2022-09-09T05:10:34;13.82;;;4.22;;
69305;SDS011;56427;51.580;4.656;2022-09-09T05:13:02;15.85;;;4.10;;
69305;SDS011;56427;51.580;4.656;2022-09-09T05:15:29;13.40;;;3.85;;
69305;SDS011;56427;51.580;4.656;2022-09-09T05:17:58;16.60;;;4.10;;
69305;SDS011;56427;51.580;4.656;2022-09-09T05:20:25;13.50;;;3.40;;
69305;SDS011;56427;51.580;4.656;2022-09-09T05:22:54;14.67;;;4.93;;
69305;SDS011;56427;51.580;4.656;2022-09-09T05:25:19;15.43;;;4.10;;
69305;SDS011;56427;51.580;4.656;2022-09-09T05:27:45;17.33;;;4.60;;
69305;SDS011;56427;51.580;4.656;2022-09-09T05:30:10;9.70;;;3.60;;
69305;SDS011;56427;51.580;4.656;2022-09-09T05:32:36;13.57;;;3.75;;
69305;SDS011;56427;51.580;4.656;2022-09-09T05:35:01;14.23;;;4.53;;
69305;SDS011;56427;51.580;4.656;2022-09-09T05:37:27;11.82;;;3.75;;
69305;SDS011;56427;51.580;4.656;2022-09-09T05:39:52;15.13;;;4.23;;
69305;SDS011;56427;51.580;4.656;2022-09-09T05:42:18;13.23;;;3.90;;
69305;SDS011;56427;51.580;4.656;2022-09-09T05:44:43;14.10;;;3.93;;
69305;SDS011;56427;51.580;4.656;2022-09-09T05:47:09;12.30;;;4.18;;
69305;SDS011;56427;51.580;4.656;2022-09-09T05:49:35;12.23;;;3.73;;
69305;SDS011;56427;51.580;4.656;2022-09-09T05:52:00;15.73;;;4.10;;
69305;SDS011;56427;51.580;4.656;2022-09-09T05:54:26;12.67;;;3.80;;
69305;SDS011;56427;51.580;4.656;2022-09-09T05:56:51;14.20;;;3.20;;
69305;SDS011;56427;51.580;4.656;2022-09-09T05:59:18;10.23;;;2.90;;
69305;SDS011;56427;51.580;4.656;2022-09-09T06:01:43;10.40;;;3.23;;
69305;SDS011;56427;51.580;4.656;2022-09-09T06:04:10;11.27;;;3.10;;
69305;SDS011;56427;51.580;4.656;2022-09-09T06:06:36;14.30;;;3.27;;
69305;SDS011;56427;51.580;4.656;2022-09-09T06:09:04;9.05;;;3.00;;
69305;SDS011;56427;51.580;4.656;2022-09-09T06:11:35;13.70;;;4.05;;
69305;SDS011;56427;51.580;4.656;2022-09-09T06:14:03;11.73;;;3.20;;
69305;SDS011;56427;51.580;4.656;2022-09-09T06:16:29;10.90;;;3.72;;
69305;SDS011;56427;51.580;4.656;2022-09-09T06:18:57;10.63;;;2.60;;
69305;SDS011;56427;51.580;4.656;2022-09-09T06:21:24;14.70;;;3.60;;
69305;SDS011;56427;51.580;4.656;2022-09-09T06:23:51;11.43;;;2.70;;
69305;SDS011;56427;51.580;4.656;2022-09-09T06:26:17;14.67;;;3.23;;
69305;SDS011;56427;51.580;4.656;2022-09-09T06:28:45;10.90;;;3.03;;
69305;SDS011;56427;51.580;4.656;2022-09-09T06:31:12;12.80;;;3.15;;
69305;SDS011;56427;51.580;4.656;2022-09-09T06:33:41;8.20;;;2.60;;
69305;SDS011;56427;51.580;4.656;2022-09-09T06:36:14;10.30;;;3.15;;
69305;SDS011;56427;51.580;4.656;2022-09-09T06:38:47;13.35;;;3.05;;
69305;SDS011;56427;51.580;4.656;2022-09-09T06:41:13;7.20;;;2.40;;
69305;SDS011;56427;51.580;4.656;2022-09-09T06:43:40;11.82;;;2.67;;
69305;SDS011;56427;51.580;4.656;2022-09-09T06:46:12;11.40;;;2.70;;
69305;SDS011;56427;51.580;4.656;2022-09-09T06:48:39;9.77;;;3.10;;
69305;SDS011;56427;51.580;4.656;2022-09-09T06:51:07;10.70;;;2.83;;
69305;SDS011;56427;51.580;4.656;2022-09-09T06:53:36;12.95;;;2.88;;
69305;SDS011;56427;51.580;4.656;2022-09-09T06:56:13;10.30;;;2.78;;
69305;SDS011;56427;51.580;4.656;2022-09-09T06:58:43;12.05;;;2.72;;
69305;SDS011;56427;51.580;4.656;2022-09-09T07:01:10;15.05;;;3.33;;
69305;SDS011;56427;51.580;4.656;2022-09-09T07:03:47;6.63;;;2.40;;
69305;SDS011;56427;51.580;4.656;2022-09-09T07:06:16;13.15;;;3.28;;
69305;SDS011;56427;51.580;4.656;2022-09-09T07:08:49;13.27;;;3.25;;
69305;SDS011;56427;51.580;4.656;2022-09-09T07:11:23;10.95;;;3.35;;
69305;SDS011;56427;51.580;4.656;2022-09-09T07:13:51;12.65;;;3.10;;
69305;SDS011;56427;51.580;4.656;2022-09-09T07:16:17;12.27;;;3.27;;
69305;SDS011;56427;51.580;4.656;2022-09-09T07:18:44;17.48;;;3.38;;
69305;SDS011;56427;51.580;4.656;2022-09-09T07:21:12;15.10;;;3.47;;
69305;SDS011;56427;51.580;4.656;2022-09-09T07:23:39;13.05;;;3.30;;
69305;SDS011;56427;51.580;4.656;2022-09-09T07:26:12;9.83;;;2.93;;
69305;SDS011;56427;51.580;4.656;2022-09-09T07:28:39;14.13;;;3.90;;
69305;SDS011;56427;51.580;4.656;2022-09-09T07:31:06;11.73;;;3.22;;
69305;SDS011;56427;51.580;4.656;2022-09-09T07:33:38;11.63;;;2.88;;
69305;SDS011;56427;51.580;4.656;2022-09-09T07:36:09;13.23;;;3.50;;
69305;SDS011;56427;51.580;4.656;2022-09-09T07:38:39;8.93;;;2.67;;
69305;SDS011;56427;51.580;4.656;2022-09-09T07:41:09;11.23;;;3.30;;
69305;SDS011;56427;51.580;4.656;2022-09-09T07:43:41;8.68;;;3.10;;
69305;SDS011;56427;51.580;4.656;2022-09-09T07:46:09;10.65;;;3.00;;
69305;SDS011;56427;51.580;4.656;2022-09-09T07:48:37;13.55;;;3.55;;
69305;SDS011;56427;51.580;4.656;2022-09-09T07:51:09;15.63;;;3.50;;
69305;SDS011;56427;51.580;4.656;2022-09-09T07:53:42;11.45;;;2.95;;
69305;SDS011;56427;51.580;4.656;2022-09-09T07:56:11;12.05;;;3.10;;
69305;SDS011;56427;51.580;4.656;2022-09-09T07:58:46;13.57;;;2.80;;
69305;SDS011;56427;51.580;4.656;2022-09-09T08:01:22;9.00;;;3.00;;
69305;SDS011;56427;51.580;4.656;2022-09-09T08:03:54;14.27;;;3.10;;
69305;SDS011;56427;51.580;4.656;2022-09-09T08:06:21;8.60;;;2.40;;
69305;SDS011;56427;51.580;4.656;2022-09-09T08:08:49;15.63;;;3.55;;
69305;SDS011;56427;51.580;4.656;2022-09-09T08:11:16;10.73;;;2.90;;
69305;SDS011;56427;51.580;4.656;2022-09-09T08:13:41;9.73;;;2.90;;
69305;SDS011;56427;51.580;4.656;2022-09-09T08:16:15;11.68;;;3.28;;
69305;SDS011;56427;51.580;4.656;2022-09-09T08:18:43;12.53;;;2.93;;
69305;SDS011;56427;51.580;4.656;2022-09-09T08:21:10;10.50;;;2.90;;
69305;SDS011;56427;51.580;4.656;2022-09-09T08:23:38;10.05;;;3.47;;
69305;SDS011;56427;51.580;4.656;2022-09-09T08:26:14;10.57;;;2.80;;
69305;SDS011;56427;51.580;4.656;2022-09-09T08:28:41;8.77;;;3.30;;
69305;SDS011;56427;51.580;4.656;2022-09-09T08:31:12;12.48;;;2.60;;
69305;SDS011;56427;51.580;4.656;2022-09-09T08:33:39;10.18;;;3.03;;
69305;SDS011;56427;51.580;4.656;2022-09-09T08:36:06;14.18;;;3.10;;
69305;SDS011;56427;51.580;4.656;2022-09-09T08:38:33;8.73;;;2.80;;
69305;SDS011;56427;51.580;4.656;2022-09-09T08:52:27;9.73;;;2.70;;
69305;SDS011;56427;51.580;4.656;2022-09-09T08:55:12;11.77;;;2.93;;
69305;SDS011;56427;51.580;4.656;2022-09-09T08:57:47;12.52;;;2.60;;
69305;SDS011;56427;51.580;4.656;2022-09-09T09:00:16;10.95;;;2.60;;
69305;SDS011;56427;51.580;4.656;2022-09-09T09:02:46;10.90;;;3.30;;
69305;SDS011;56427;51.580;4.656;2022-09-09T09:05:33;10.00;;;3.10;;
69305;SDS011;56427;51.580;4.656;2022-09-09T09:10:56;11.82;;;2.45;;
69305;SDS011;56427;51.580;4.656;2022-09-09T09:13:37;8.15;;;2.28;;
69305;SDS011;56427;51.580;4.656;2022-09-09T09:16:12;9.15;;;2.53;;
69305;SDS011;56427;51.580;4.656;2022-09-09T09:18:44;11.57;;;2.87;;
69305;SDS011;56427;51.580;4.656;2022-09-09T09:21:16;9.35;;;2.80;;
69305;SDS011;56427;51.580;4.656;2022-09-09T09:23:52;10.77;;;2.50;;
69305;SDS011;56427;51.580;4.656;2022-09-09T09:26:21;12.70;;;2.58;;
69305;SDS011;56427;51.580;4.656;2022-09-09T09:28:51;18.83;;;3.30;;
69305;SDS011;56427;51.580;4.656;2022-09-09T09:31:21;11.45;;;3.58;;
69305;SDS011;56427;51.580;4.656;2022-09-09T09:33:52;11.20;;;2.90;;
69305;SDS011;56427;51.580;4.656;2022-09-09T09:36:19;12.50;;;2.87;;
69305;SDS011;56427;51.580;4.656;2022-09-09T09:38:56;10.02;;;2.70;;
69305;SDS011;56427;51.580;4.656;2022-09-09T09:41:28;11.93;;;2.72;;
69305;SDS011;56427;51.580;4.656;2022-09-09T09:47:08;11.93;;;2.78;;
69305;SDS011;56427;51.580;4.656;2022-09-09T09:49:38;8.47;;;2.73;;
69305;SDS011;56427;51.580;4.656;2022-09-09T09:52:04;12.00;;;2.60;;
69305;SDS011;56427;51.580;4.656;2022-09-09T09:54:33;10.20;;;2.88;;
69305;SDS011;56427;51.580;4.656;2022-09-09T09:57:08;11.52;;;2.78;;
69305;SDS011;56427;51.580;4.656;2022-09-09T09:59:36;8.77;;;3.53;;
69305;SDS011;56427;51.580;4.656;2022-09-09T10:04:44;10.13;;;2.92;;
69305;SDS011;56427;51.580;4.656;2022-09-09T10:07:15;7.90;;;2.67;;
69305;SDS011;56427;51.580;4.656;2022-09-09T10:09:43;13.57;;;4.05;;
69305;SDS011;56427;51.580;4.656;2022-09-09T10:18:13;11.07;;;2.60;;
69305;SDS011;56427;51.580;4.656;2022-09-09T10:29:15;12.02;;;3.20;;
69305;SDS011;56427;51.580;4.656;2022-09-09T10:34:49;11.40;;;3.45;;
69305;SDS011;56427;51.580;4.656;2022-09-09T10:37:35;13.67;;;3.80;;
69305;SDS011;56427;51.580;4.656;2022-09-09T10:45:53;14.07;;;4.10;;
69305;SDS011;56427;51.580;4.656;2022-09-09T10:56:22;10.90;;;4.53;;
69305;SDS011;56427;51.580;4.656;2022-09-09T10:58:52;11.25;;;4.30;;
69305;SDS011;56427;51.580;4.656;2022-09-09T11:01:23;12.15;;;3.67;;
69305;SDS011;56427;51.580;4.656;2022-09-09T11:03:52;9.17;;;3.10;;
69305;SDS011;56427;51.580;4.656;2022-09-09T11:06:22;12.00;;;3.72;;
69305;SDS011;56427;51.580;4.656;2022-09-09T11:08:54;9.07;;;3.35;;
69305;SDS011;56427;51.580;4.656;2022-09-09T11:11:34;7.20;;;3.28;;
69305;SDS011;56427;51.580;4.656;2022-09-09T11:14:12;10.88;;;3.38;;
69305;SDS011;56427;51.580;4.656;2022-09-09T11:16:52;9.37;;;3.20;;
69305;SDS011;56427;51.580;4.656;2022-09-09T11:19:30;7.53;;;3.38;;
69305;SDS011;56427;51.580;4.656;2022-09-09T11:22:26;7.55;;;3.58;;
69305;SDS011;56427;51.580;4.656;2022-09-09T11:24:59;6.10;;;2.70;;
69305;SDS011;56427;51.580;4.656;2022-09-09T11:27:43;10.63;;;3.03;;
69305;SDS011;56427;51.580;4.656;2022-09-09T11:30:20;10.90;;;3.10;;
69305;SDS011;56427;51.580;4.656;2022-09-09T11:38:55;10.35;;;3.45;;
69305;SDS011;56427;51.580;4.656;2022-09-09T11:41:34;11.20;;;3.80;;
69305;SDS011;56427;51.580;4.656;2022-09-09T11:44:09;8.47;;;3.90;;
69305;SDS011;56427;51.580;4.656;2022-09-09T11:46:41;9.45;;;3.85;;
69305;SDS011;56427;51.580;4.656;2022-09-09T11:51:54;7.80;;;3.33;;
69305;SDS011;56427;51.580;4.656;2022-09-09T11:54:30;10.20;;;3.50;;
69305;SDS011;56427;51.580;4.656;2022-09-09T11:56:57;7.25;;;3.08;;
69305;SDS011;56427;51.580;4.656;2022-09-09T11:59:32;10.02;;;2.58;;
69305;SDS011;56427;51.580;4.656;2022-09-09T12:01:58;8.23;;;3.13;;
69305;SDS011;56427;51.580;4.656;2022-09-09T12:04:34;7.43;;;3.00;;
69305;SDS011;56427;51.580;4.656;2022-09-09T12:07:26;8.48;;;2.42;;
69305;SDS011;56427;51.580;4.656;2022-09-09T12:10:05;9.80;;;2.72;;
69305;SDS011;56427;51.580;4.656;2022-09-09T12:12:49;8.18;;;2.55;;
69305;SDS011;56427;51.580;4.656;2022-09-09T12:15:22;6.13;;;2.33;;
69305;SDS011;56427;51.580;4.656;2022-09-09T12:17:54;7.55;;;3.38;;
69305;SDS011;56427;51.580;4.656;2022-09-09T12:20:34;8.20;;;2.60;;
69305;SDS011;56427;51.580;4.656;2022-09-09T12:29:10;6.38;;;2.05;;
69305;SDS011;56427;51.580;4.656;2022-09-09T12:34:43;9.65;;;2.72;;
69305;SDS011;56427;51.580;4.656;2022-09-09T12:39:45;5.15;;;2.05;;
69305;SDS011;56427;51.580;4.656;2022-09-09T12:42:17;6.53;;;1.90;;
69305;SDS011;56427;51.580;4.656;2022-09-09T12:44:53;6.53;;;2.13;;
69305;SDS011;56427;51.580;4.656;2022-09-09T12:47:21;5.85;;;2.10;;
69305;SDS011;56427;51.580;4.656;2022-09-09T12:50:00;5.10;;;1.80;;
69305;SDS011;56427;51.580;4.656;2022-09-09T12:52:30;6.07;;;2.10;;
69305;SDS011;56427;51.580;4.656;2022-09-09T12:54:59;5.60;;;1.50;;
69305;SDS011;56427;51.580;4.656;2022-09-09T12:57:28;6.50;;;1.80;;
69305;SDS011;56427;51.580;4.656;2022-09-09T13:00:07;3.38;;;1.40;;
69305;SDS011;56427;51.580;4.656;2022-09-09T13:02:46;4.07;;;1.52;;
69305;SDS011;56427;51.580;4.656;2022-09-09T13:05:20;4.32;;;1.52;;
69305;SDS011;56427;51.580;4.656;2022-09-09T13:07:47;4.40;;;1.55;;
69305;SDS011;56427;51.580;4.656;2022-09-09T13:10:14;5.80;;;1.40;;
69305;SDS011;56427;51.580;4.656;2022-09-09T13:12:46;4.07;;;1.70;;
69305;SDS011;56427;51.580;4.656;2022-09-09T13:15:14;6.28;;;1.52;;
69305;SDS011;56427;51.580;4.656;2022-09-09T13:17:49;6.75;;;1.70;;
69305;SDS011;56427;51.580;4.656;2022-09-09T13:20:17;6.27;;;1.60;;
69305;SDS011;56427;51.580;4.656;2022-09-09T13:22:43;4.85;;;1.63;;
69305;SDS011;56427;51.580;4.656;2022-09-09T13:27:36;5.35;;;1.42;;
69305;SDS011;56427;51.580;4.656;2022-09-09T13:32:59;4.43;;;1.40;;
69305;SDS011;56427;51.580;4.656;2022-09-09T13:38:18;5.30;;;1.60;;
69305;SDS011;56427;51.580;4.656;2022-09-09T13:40:53;4.40;;;1.40;;
69305;SDS011;56427;51.580;4.656;2022-09-09T13:43:26;5.50;;;1.75;;
69305;SDS011;56427;51.580;4.656;2022-09-09T13:46:03;7.03;;;1.90;;
69305;SDS011;56427;51.580;4.656;2022-09-09T13:48:31;6.47;;;2.00;;
69305;SDS011;56427;51.580;4.656;2022-09-09T13:51:03;3.33;;;1.60;;
69305;SDS011;56427;51.580;4.656;2022-09-09T13:53:32;5.80;;;1.88;;
69305;SDS011;56427;51.580;4.656;2022-09-09T13:55:58;5.60;;;1.80;;
69305;SDS011;56427;51.580;4.656;2022-09-09T13:58:24;6.67;;;1.70;;
69305;SDS011;56427;51.580;4.656;2022-09-09T14:00:50;6.63;;;2.10;;
69305;SDS011;56427;51.580;4.656;2022-09-09T14:03:18;5.68;;;1.77;;
69305;SDS011;56427;51.580;4.656;2022-09-09T14:05:44;5.93;;;1.67;;
69305;SDS011;56427;51.580;4.656;2022-09-09T14:08:11;4.85;;;2.00;;
69305;SDS011;56427;51.580;4.656;2022-09-09T14:10:45;4.30;;;1.83;;
69305;SDS011;56427;51.580;4.656;2022-09-09T14:13:11;4.33;;;1.87;;
69305;SDS011;56427;51.580;4.656;2022-09-09T14:15:37;4.55;;;1.70;;
69305;SDS011;56427;51.580;4.656;2022-09-09T14:18:02;5.35;;;2.03;;
69305;SDS011;56427;51.580;4.656;2022-09-09T14:20:28;5.00;;;2.10;;
69305;SDS011;56427;51.580;4.656;2022-09-09T14:22:53;5.30;;;2.00;;
69305;SDS011;56427;51.580;4.656;2022-09-09T14:25:18;4.30;;;1.93;;
69305;SDS011;56427;51.580;4.656;2022-09-09T14:27:43;7.77;;;2.27;;
69305;SDS011;56427;51.580;4.656;2022-09-09T14:30:10;5.90;;;2.00;;
69305;SDS011;56427;51.580;4.656;2022-09-09T14:32:36;6.32;;;2.13;;
69305;SDS011;56427;51.580;4.656;2022-09-09T14:35:01;5.80;;;2.20;;
69305;SDS011;56427;51.580;4.656;2022-09-09T14:37:27;7.83;;;2.17;;
69305;SDS011;56427;51.580;4.656;2022-09-09T14:39:52;5.90;;;2.17;;
69305;SDS011;56427;51.580;4.656;2022-09-09T14:42:18;6.10;;;2.17;;
69305;SDS011;56427;51.580;4.656;2022-09-09T14:44:44;4.35;;;2.13;;
69305;SDS011;56427;51.580;4.656;2022-09-09T14:47:09;5.70;;;2.13;;
69305;SDS011;56427;51.580;4.656;2022-09-09T14:49:35;5.17;;;2.00;;
69305;SDS011;56427;51.580;4.656;2022-09-09T14:52:01;6.43;;;2.30;;
69305;SDS011;56427;51.580;4.656;2022-09-09T14:54:26;5.55;;;2.15;;
69305;SDS011;56427;51.580;4.656;2022-09-09T14:56:53;6.38;;;2.00;;
69305;SDS011;56427;51.580;4.656;2022-09-09T14:59:18;5.13;;;2.20;;
69305;SDS011;56427;51.580;4.656;2022-09-09T15:01:44;7.43;;;2.03;;
69305;SDS011;56427;51.580;4.656;2022-09-09T15:04:10;5.00;;;1.97;;
69305;SDS011;56427;51.580;4.656;2022-09-09T15:06:37;7.03;;;2.07;;
69305;SDS011;56427;51.580;4.656;2022-09-09T15:09:04;6.07;;;2.20;;
69305;SDS011;56427;51.580;4.656;2022-09-09T15:11:32;3.83;;;1.77;;
69305;SDS011;56427;51.580;4.656;2022-09-09T15:14:02;4.88;;;1.75;;
69305;SDS011;56427;51.580;4.656;2022-09-09T15:16:28;5.70;;;1.67;;
69305;SDS011;56427;51.580;4.656;2022-09-09T15:18:55;6.47;;;1.80;;
69305;SDS011;56427;51.580;4.656;2022-09-09T15:21:22;5.35;;;1.88;;
69305;SDS011;56427;51.580;4.656;2022-09-09T15:23:50;9.00;;;2.13;;
69305;SDS011;56427;51.580;4.656;2022-09-09T15:26:16;5.20;;;2.08;;
69305;SDS011;56427;51.580;4.656;2022-09-09T15:28:42;4.70;;;1.80;;
69305;SDS011;56427;51.580;4.656;2022-09-09T15:31:11;5.20;;;2.00;;
69305;SDS011;56427;51.580;4.656;2022-09-09T15:33:50;5.90;;;2.28;;
69305;SDS011;56427;51.580;4.656;2022-09-09T15:36:26;5.30;;;2.00;;
69305;SDS011;56427;51.580;4.656;2022-09-09T15:39:00;5.38;;;1.80;;
69305;SDS011;56427;51.580;4.656;2022-09-09T15:41:26;5.57;;;2.10;;
69305;SDS011;56427;51.580;4.656;2022-09-09T15:43:53;5.80;;;2.10;;
69305;SDS011;56427;51.580;4.656;2022-09-09T15:48:55;6.03;;;2.23;;
69305;SDS011;56427;51.580;4.656;2022-09-09T15:51:22;6.28;;;2.72;;
69305;SDS011;56427;51.580;4.656;2022-09-09T15:53:56;5.65;;;1.85;;
69305;SDS011;56427;51.580;4.656;2022-09-09T15:56:23;8.05;;;2.22;;
69305;SDS011;56427;51.580;4.656;2022-09-09T15:58:49;6.07;;;2.40;;
69305;SDS011;56427;51.580;4.656;2022-09-09T16:01:14;7.33;;;2.30;;
69305;SDS011;56427;51.580;4.656;2022-09-09T16:03:42;6.18;;;2.40;;
69305;SDS011;56427;51.580;4.656;2022-09-09T16:06:08;7.68;;;2.47;;
69305;SDS011;56427;51.580;4.656;2022-09-09T16:11:07;5.75;;;2.42;;
69305;SDS011;56427;51.580;4.656;2022-09-09T16:13:37;5.85;;;2.60;;
69305;SDS011;56427;51.580;4.656;2022-09-09T16:16:06;6.55;;;2.45;;
69305;SDS011;56427;51.580;4.656;2022-09-09T16:18:37;7.07;;;2.47;;
69305;SDS011;56427;51.580;4.656;2022-09-09T16:21:04;6.00;;;1.93;;
69305;SDS011;56427;51.580;4.656;2022-09-09T16:23:34;6.43;;;2.13;;
69305;SDS011;56427;51.580;4.656;2022-09-09T16:26:00;4.78;;;2.20;;
69305;SDS011;56427;51.580;4.656;2022-09-09T16:28:26;6.75;;;2.60;;
69305;SDS011;56427;51.580;4.656;2022-09-09T16:30:52;6.47;;;2.35;;
69305;SDS011;56427;51.580;4.656;2022-09-09T16:33:18;6.37;;;2.70;;
69305;SDS011;56427;51.580;4.656;2022-09-09T16:35:43;6.27;;;2.23;;
69305;SDS011;56427;51.580;4.656;2022-09-09T16:38:09;8.13;;;2.90;;
69305;SDS011;56427;51.580;4.656;2022-09-09T16:40:34;8.17;;;2.77;;
69305;SDS011;56427;51.580;4.656;2022-09-09T16:43:01;6.93;;;1.98;;
69305;SDS011;56427;51.580;4.656;2022-09-09T16:45:26;6.90;;;2.00;;
69305;SDS011;56427;51.580;4.656;2022-09-09T16:47:52;9.57;;;2.60;;
69305;SDS011;56427;51.580;4.656;2022-09-09T16:50:17;8.03;;;2.67;;
69305;SDS011;56427;51.580;4.656;2022-09-09T16:52:43;5.93;;;2.23;;
69305;SDS011;56427;51.580;4.656;2022-09-09T17:02:01;5.38;;;2.15;;
69305;SDS011;56427;51.580;4.656;2022-09-09T17:04:29;9.48;;;2.22;;
69305;SDS011;56427;51.580;4.656;2022-09-09T17:06:55;7.50;;;2.00;;